createdAt,value
2022-11-13T00:02:39.497Z,47.5
2022-11-13T00:08:08.052Z,47.5
2022-11-13T00:13:38.645Z,47.5
2022-11-13T00:19:08.997Z,48
2022-11-13T00:24:38.509Z,47.5
2022-11-13T00:30:09.307Z,48
2022-11-13T00:35:37.618Z,47.5
2022-11-13T00:41:08.111Z,47.5
2022-11-13T00:46:38.690Z,48
2022-11-13T00:52:08.085Z,48
2022-11-13T00:57:35.717Z,48
2022-11-13T01:03:06.327Z,48
2022-11-13T01:08:36.677Z,48
2022-11-13T01:14:06.141Z,48
2022-11-13T01:19:35.768Z,48
2022-11-13T01:25:04.288Z,48
2022-11-13T01:30:34.873Z,48
2022-11-13T01:36:05.605Z,48
2022-11-13T01:41:36.067Z,48
2022-11-13T01:47:06.595Z,47.5
2022-11-13T01:52:35.331Z,47.5
2022-11-13T01:58:05.663Z,47
2022-11-13T02:03:36.132Z,47
2022-11-13T02:09:06.906Z,47
2022-11-13T02:14:36.350Z,47
2022-11-13T02:20:06.839Z,47
2022-11-13T02:25:37.433Z,47
2022-11-13T02:31:06.835Z,47
2022-11-13T02:36:37.286Z,47
2022-11-13T02:42:06.062Z,46.5
2022-11-13T02:47:36.404Z,46
2022-11-13T02:53:06.870Z,47
2022-11-13T02:58:36.503Z,46.5
2022-11-13T03:04:06.996Z,46.5
2022-11-13T03:09:37.586Z,46
2022-11-13T03:15:08.199Z,45.5
2022-11-13T03:20:38.589Z,46
2022-11-13T03:26:09.191Z,46
2022-11-13T03:31:37.838Z,45
2022-11-13T03:37:07.322Z,45
2022-11-13T03:42:37.793Z,45
2022-11-13T03:48:08.388Z,45
2022-11-13T03:53:38.879Z,45
2022-11-13T03:59:08.359Z,44.5
2022-11-13T04:04:38.064Z,45
2022-11-13T04:10:08.434Z,45.5
2022-11-13T04:15:37.930Z,45
2022-11-13T04:21:08.549Z,44.5
2022-11-13T04:26:36.909Z,44.5
2022-11-13T04:32:07.395Z,45
2022-11-13T04:37:38.001Z,44.5
2022-11-13T04:43:07.371Z,45
2022-11-13T04:48:38.014Z,45.5
2022-11-13T04:54:08.828Z,45
2022-11-13T04:59:38.200Z,45.5
2022-11-13T05:05:08.705Z,45.5
2022-11-13T05:10:39.274Z,45.5
2022-11-13T05:16:07.799Z,46
2022-11-13T05:21:36.309Z,45
2022-11-13T05:27:07.015Z,45.5
2022-11-13T05:32:37.373Z,45.5
2022-11-13T05:38:06.956Z,44.5
2022-11-13T05:43:37.683Z,45
2022-11-13T05:49:07.167Z,44.5
2022-11-13T05:54:37.648Z,45
2022-11-13T06:00:08.233Z,44.5
2022-11-13T06:05:37.691Z,44.5
2022-11-13T06:11:08.159Z,44.5
2022-11-13T06:16:37.924Z,44
2022-11-13T06:22:08.411Z,44.5
2022-11-13T06:27:37.910Z,44.5
2022-11-13T06:33:08.513Z,44
2022-11-13T06:38:39.031Z,44
2022-11-13T06:44:08.625Z,44
2022-11-13T06:49:39.380Z,44
2022-11-13T06:55:09.843Z,44
2022-11-13T07:00:40.260Z,44
2022-11-13T07:06:09.939Z,44
2022-11-13T07:11:38.568Z,44
2022-11-13T07:17:10.168Z,44
2022-11-13T07:22:38.679Z,44
2022-11-13T07:28:09.061Z,44
2022-11-13T07:33:39.636Z,44
2022-11-13T07:39:10.249Z,44
2022-11-13T07:44:54.227Z,44
2022-11-13T07:50:11.139Z,44
2022-11-13T07:55:40.936Z,44
2022-11-13T08:01:11.451Z,44
2022-11-13T08:06:42.038Z,44.5
2022-11-13T08:12:11.852Z,44.5
2022-11-13T08:17:41.377Z,44
2022-11-13T08:23:11.973Z,44
2022-11-13T08:28:42.562Z,44.5
2022-11-13T08:34:13.038Z,44.5
2022-11-13T08:39:43.649Z,44.5
2022-11-13T08:45:13.396Z,45
2022-11-13T08:50:43.720Z,45
2022-11-13T08:56:14.433Z,45
2022-11-13T09:01:45.035Z,45
2022-11-13T09:07:15.572Z,45
2022-11-13T09:12:46.138Z,45
2022-11-13T09:18:16.721Z,44.5
2022-11-13T09:23:47.095Z,44.5
2022-11-13T09:29:15.713Z,44
2022-11-13T09:34:44.347Z,44
2022-11-13T09:40:14.826Z,43.5
2022-11-13T09:45:45.297Z,43.5
2022-11-13T09:51:15.021Z,43.5
2022-11-13T09:56:45.372Z,43
2022-11-13T10:02:15.015Z,43
2022-11-13T10:07:44.598Z,43
2022-11-13T10:13:14.977Z,42.5
2022-11-13T10:18:44.454Z,42.5
2022-11-13T10:24:14.544Z,42
2022-11-13T10:29:48.824Z,42
2022-11-13T10:35:14.100Z,42
2022-11-13T10:40:44.673Z,42
2022-11-13T10:46:14.026Z,42
2022-11-13T10:51:44.500Z,42
2022-11-13T10:57:14.391Z,42
2022-11-13T11:02:43.786Z,41.5
2022-11-13T11:08:14.314Z,41.5
2022-11-13T11:13:44.855Z,41.5
2022-11-13T11:19:14.209Z,41
2022-11-13T11:24:42.877Z,41
2022-11-13T11:30:13.468Z,41
2022-11-13T11:35:43.865Z,41
2022-11-13T11:41:16.879Z,40.5
2022-11-13T11:46:46.852Z,40.5
2022-11-13T11:52:14.790Z,41
2022-11-13T11:57:45.242Z,40.5
2022-11-13T12:03:15.862Z,40.5
2022-11-13T12:08:46.330Z,40.5
2022-11-13T12:14:14.962Z,40.5
2022-11-13T12:19:45.662Z,40
2022-11-13T12:25:15.998Z,40
2022-11-13T12:30:46.794Z,40
2022-11-13T12:36:16.363Z,40
2022-11-13T12:41:45.724Z,40
2022-11-13T12:47:16.199Z,40
2022-11-13T12:52:45.831Z,40
2022-11-13T12:58:16.179Z,40
2022-11-13T13:03:45.805Z,40
2022-11-13T13:09:16.415Z,40
2022-11-13T13:14:46.795Z,40.5
2022-11-13T13:20:17.393Z,40
2022-11-13T13:25:48.127Z,40
2022-11-13T13:31:15.533Z,40
2022-11-13T13:36:44.166Z,40
2022-11-13T13:42:14.774Z,40
2022-11-13T13:47:45.131Z,40.5
2022-11-13T13:53:14.602Z,40.5
2022-11-13T13:58:44.328Z,41
2022-11-13T14:04:14.686Z,41
2022-11-13T14:09:45.173Z,41
2022-11-13T14:15:15.889Z,41.5
2022-11-13T14:20:45.274Z,41.5
2022-11-13T14:26:14.890Z,42
2022-11-13T14:31:45.471Z,41.5
2022-11-13T14:37:15.994Z,41.5
2022-11-13T14:42:46.428Z,41.5
2022-11-13T14:48:16.044Z,41.5
2022-11-13T14:53:46.509Z,41.5
2022-11-13T14:59:20.079Z,41.5
2022-11-13T15:04:47.783Z,41.5
2022-11-13T15:10:18.152Z,41.5
2022-11-13T15:15:48.759Z,41.5
2022-11-13T15:21:18.483Z,41.5
2022-11-13T15:26:48.853Z,42
2022-11-13T15:32:19.400Z,42
2022-11-13T15:37:50.049Z,42
2022-11-13T15:43:19.433Z,42.5
2022-11-13T15:48:49.031Z,42.5
2022-11-13T15:54:19.624Z,42.5
2022-11-13T15:59:50.001Z,42.5
2022-11-13T16:05:20.576Z,43
2022-11-13T16:10:50.304Z,43
2022-11-13T16:16:20.653Z,43
2022-11-13T16:21:51.270Z,43
2022-11-13T16:27:21.867Z,43.5
2022-11-13T16:32:52.380Z,43.5
2022-11-13T16:38:19.897Z,43.5
2022-11-13T16:43:49.686Z,43.5
2022-11-13T16:49:19.079Z,44
2022-11-13T16:54:49.534Z,44
2022-11-13T17:00:19.162Z,44
2022-11-13T17:05:49.515Z,44
2022-11-13T17:11:19.127Z,44
2022-11-13T17:16:49.718Z,44
2022-11-13T17:22:20.065Z,44.5
2022-11-13T17:27:49.551Z,44.5
2022-11-13T17:33:18.186Z,45
2022-11-13T17:38:48.577Z,45
2022-11-13T17:44:19.026Z,44.5
2022-11-13T17:49:49.748Z,45
2022-11-13T17:55:19.248Z,44.5
2022-11-13T18:00:48.867Z,44.5
2022-11-13T18:06:19.887Z,44.5
2022-11-13T18:11:49.892Z,45
2022-11-13T18:17:20.357Z,44.5
2022-11-13T18:22:48.992Z,45
2022-11-13T18:28:17.520Z,45
2022-11-13T18:33:48.004Z,44.5
2022-11-13T18:39:18.640Z,44
2022-11-13T18:44:47.977Z,44
2022-11-13T18:50:17.665Z,44.5
2022-11-13T18:55:47.321Z,44.5
2022-11-13T19:01:22.250Z,44.5
2022-11-13T19:06:48.201Z,44.5
2022-11-13T19:12:17.772Z,44.5
2022-11-13T19:17:52.593Z,45
2022-11-13T19:23:15.788Z,45
2022-11-13T19:28:46.390Z,45.5
2022-11-13T19:34:16.750Z,45
2022-11-13T19:39:46.214Z,45
2022-11-13T19:45:15.851Z,44.5
2022-11-13T19:50:45.390Z,45
2022-11-13T19:56:15.822Z,45
2022-11-13T20:01:46.651Z,44.5
2022-11-13T20:07:16.975Z,44.5
2022-11-13T20:12:47.396Z,44.5
2022-11-13T20:18:17.116Z,44.5
2022-11-13T20:23:46.645Z,44.5
2022-11-13T20:29:17.116Z,44.5
2022-11-13T20:34:47.736Z,44.5
2022-11-13T20:40:17.103Z,44.5
2022-11-13T20:45:45.740Z,44.5
2022-11-13T20:51:15.342Z,45
2022-11-13T20:56:45.710Z,45
2022-11-13T21:02:16.175Z,45
2022-11-13T21:07:46.904Z,45
2022-11-13T21:13:15.299Z,45
2022-11-13T21:18:44.804Z,45
2022-11-13T21:24:15.366Z,45
2022-11-13T21:29:44.735Z,44.5
2022-11-13T21:35:18.554Z,44.5
2022-11-13T21:40:46.236Z,45
2022-11-13T21:46:16.591Z,45
2022-11-13T21:51:47.195Z,45.5
2022-11-13T21:57:16.791Z,45.5
2022-11-13T22:02:47.290Z,45.5
2022-11-13T22:08:16.944Z,45.5
2022-11-13T22:13:47.568Z,45
2022-11-13T22:19:20.356Z,45.5
2022-11-13T22:24:48.521Z,45.5
2022-11-13T22:30:18.277Z,45.5
2022-11-13T22:35:48.625Z,46
2022-11-13T22:41:22.905Z,45.5
2022-11-13T22:46:49.821Z,45.5
2022-11-13T22:52:20.316Z,45.5
2022-11-13T22:57:46.869Z,46
2022-11-13T23:03:17.479Z,46.5
2022-11-13T23:08:47.826Z,46
2022-11-13T23:14:17.317Z,46
2022-11-13T23:19:48.040Z,46
2022-11-13T23:25:17.408Z,46.5
2022-11-13T23:30:46.903Z,46.5
2022-11-13T23:36:17.508Z,46.5
2022-11-13T23:41:46.893Z,46.5
2022-11-13T23:47:17.366Z,46
2022-11-13T23:52:45.997Z,46
2022-11-13T23:58:16.511Z,45.5
